Time;durP1;ratioP1;P1;durP2;ratioP2;P2;SDS_P1;SDS_P2;PMS_P1;PMS_P2;Temp;Humidity;BMP_temperature;BMP_pressure;BME280_temperature;BME280_humidity;BME280_pressure;Samples;Min_cycle;Max_cycle;Signal;HPM_P1;HPM_P2
2021/12/07 00:00:49;;;;;;;2.43;2.23;;;;;;;8.65;71.10;93264.00;5064779;28;20404;-72
2021/12/07 00:03:15;;;;;;;2.10;1.67;;;;;;;8.94;70.63;93265.09;5064643;28;20198;-72
2021/12/07 00:05:41;;;;;;;2.60;2.33;;;;;;;8.86;70.35;93269.78;5064626;28;20447;-72
2021/12/07 00:08:06;;;;;;;1.73;1.63;;;;;;;8.40;72.65;93267.44;5064807;28;20201;-73
2021/12/07 00:10:32;;;;;;;2.17;2.07;;;;;;;8.88;70.42;93265.16;5064980;28;20453;-73
2021/12/07 00:12:58;;;;;;;2.30;2.13;;;;;;;9.18;69.71;93262.59;5064669;28;20170;-72
2021/12/07 00:15:24;;;;;;;2.10;1.93;;;;;;;8.66;71.17;93254.38;5064652;28;20163;-71
2021/12/07 00:17:50;;;;;;;1.90;1.63;;;;;;;8.51;70.89;93268.53;5065112;28;21013;-72
2021/12/07 00:20:19;;;;;;;1.63;1.53;;;;;;;8.77;71.01;93269.31;5064620;28;20417;-72
2021/12/07 00:22:48;;;;;;;2.23;1.80;;;;;;;8.82;69.93;93260.81;5064662;28;20224;-71
2021/12/07 00:25:15;;;;;;;1.40;1.30;;;;;;;8.40;71.13;93246.59;5064964;28;20456;-71
2021/12/07 00:27:46;;;;;;;1.60;1.00;;;;;;;8.23;72.09;93247.34;5064968;28;20405;-71
2021/12/07 00:30:12;;;;;;;1.37;1.13;;;;;;;8.64;70.28;93262.41;5066357;28;20457;-71
2021/12/07 00:32:43;;;;;;;1.40;1.30;;;;;;;8.71;70.91;93260.53;5066300;28;20472;-71
2021/12/07 00:37:45;;;;;;;1.37;1.20;;;;;;;8.69;70.03;93262.56;5065657;28;20402;-71
2021/12/07 00:40:13;;;;;;;1.23;1.13;;;;;;;9.18;69.58;93266.00;5065997;28;20447;-71
2021/12/07 00:42:39;;;;;;;1.10;1.10;;;;;;;9.00;69.82;93266.03;5066091;28;20915;-71
2021/12/07 00:45:06;;;;;;;1.20;1.10;;;;;;;9.02;70.38;93261.38;5068682;28;20512;-71
2021/12/07 00:47:32;;;;;;;1.40;1.30;;;;;;;8.77;70.85;93259.66;5068497;28;20194;-72
2021/12/07 00:49:58;;;;;;;1.20;1.10;;;;;;;8.61;71.13;93270.66;5068596;28;20449;-70
2021/12/07 00:52:23;;;;;;;1.10;1.00;;;;;;;8.93;69.69;93266.09;5068792;28;20973;-71
2021/12/07 00:54:49;;;;;;;1.30;1.20;;;;;;;8.99;70.30;93277.47;5073816;28;20201;-71
2021/12/07 00:57:15;;;;;;;1.83;1.70;;;;;;;8.77;70.32;93277.13;5068420;28;20178;-71
2021/12/07 00:59:40;;;;;;;1.40;1.17;;;;;;;8.65;71.13;93277.03;5068565;28;20539;-71
2021/12/07 01:02:06;;;;;;;1.40;1.30;;;;;;;8.97;70.09;93271.66;5074230;28;20163;-70
2021/12/07 01:04:32;;;;;;;1.50;1.30;;;;;;;8.32;71.72;93267.69;5072725;28;20178;-72
2021/12/07 01:07:12;;;;;;;2.13;1.30;;;;;;;8.49;71.76;93261.97;5069511;28;20409;-72
2021/12/07 01:24:38;;;;;;;1.37;1.27;;;;;;;9.04;69.49;93264.56;5069647;28;20222;-71
2021/12/07 01:26:04;;;;;;;1.30;1.20;;;;;;;8.89;72.34;93261.53;5072712;28;20388;-72
2021/12/07 01:28:35;;;;;;;0.90;0.90;;;;;;;8.94;71.98;93246.03;5069786;28;20476;-72
2021/12/07 01:31:30;;;;;;;1.10;1.00;;;;;;;9.00;71.20;93247.75;5067348;28;20409;-72
2021/12/07 01:46:45;;;;;;;1.33;1.23;;;;;;;9.65;70.00;93228.81;5067312;28;20409;-72
2021/12/07 02:00:15;;;;;;;1.40;1.30;;;;;;;9.77;69.94;93215.81;5066954;28;20447;-71
2021/12/07 02:02:41;;;;;;;1.40;1.20;;;;;;;9.43;70.99;93210.28;5066384;28;20397;-72
2021/12/07 02:05:07;;;;;;;1.97;1.77;;;;;;;8.79;73.00;93205.47;5066652;28;20504;-71
2021/12/07 02:07:33;;;;;;;1.63;1.53;;;;;;;8.15;74.18;93194.47;5066380;28;20407;-71
2021/12/07 02:10:05;;;;;;;4.93;2.00;;;;;;;8.55;73.50;93203.72;5066603;28;20613;-72
2021/12/07 02:12:42;;;;;;;1.00;1.00;;;;;;;8.25;73.26;93201.78;5066400;28;20155;-72
2021/12/07 02:15:09;;;;;;;1.50;1.40;;;;;;;8.19;73.13;93210.47;5066393;28;20867;-71
2021/12/07 02:17:35;;;;;;;3.13;1.63;;;;;;;8.70;71.40;93214.59;5066850;28;20409;-72
2021/12/07 02:20:00;;;;;;;1.30;1.20;;;;;;;8.54;72.06;93207.38;5066474;28;20468;-72
2021/12/07 02:22:26;;;;;;;1.67;1.57;;;;;;;8.90;70.79;93203.16;5066500;28;20262;-72
2021/12/07 02:24:52;;;;;;;1.00;1.00;;;;;;;8.45;72.24;93204.25;5066845;28;20174;-72
2021/12/07 02:27:18;;;;;;;1.30;1.20;;;;;;;8.28;71.78;93203.97;5067130;28;20206;-72
2021/12/07 02:29:43;;;;;;;1.60;1.07;;;;;;;8.51;71.89;93199.97;5066834;28;20472;-72
2021/12/07 02:32:09;;;;;;;0.90;0.90;;;;;;;8.04;72.03;93195.19;5067368;28;20181;-72
2021/12/07 02:34:37;;;;;;;1.63;1.53;;;;;;;8.23;71.53;93196.00;5066887;28;20166;-72
2021/12/07 02:37:03;;;;;;;0.83;0.83;;;;;;;8.25;71.80;93193.19;5066352;28;20437;-72
2021/12/07 02:39:35;;;;;;;0.90;0.90;;;;;;;8.20;71.98;93191.25;5066535;28;20476;-72
2021/12/07 02:42:02;;;;;;;1.03;1.03;;;;;;;7.93;72.11;93183.69;5066313;28;20397;-72
2021/12/07 02:44:28;;;;;;;1.07;0.97;;;;;;;7.93;72.44;93194.09;5065907;28;20459;-71
2021/12/07 02:46:53;;;;;;;1.30;1.20;;;;;;;8.19;71.55;93184.44;5066095;28;20401;-72
2021/12/07 02:49:20;;;;;;;2.03;1.30;;;;;;;8.17;71.42;93202.09;5065029;28;20271;-72
2021/12/07 02:51:47;;;;;;;1.57;1.47;;;;;;;7.27;73.85;93208.41;5065899;28;20173;-72
2021/12/07 02:54:12;;;;;;;2.43;1.47;;;;;;;7.89;72.09;93200.75;5065890;28;20823;-73
2021/12/07 02:56:38;;;;;;;1.10;1.10;;;;;;;8.13;70.32;93200.94;5065976;28;20413;-71
2021/12/07 02:59:04;;;;;;;1.63;1.30;;;;;;;8.00;71.65;93202.63;5065911;28;20192;-72
2021/12/07 03:01:34;;;;;;;0.90;0.90;;;;;;;7.08;73.84;93202.31;5065524;28;20258;-71
2021/12/07 03:06:41;;;;;;;1.40;1.30;;;;;;;7.65;71.87;93209.34;5066438;28;20417;-71
2021/12/07 03:28:04;;;;;;;1.43;0.90;;;;;;;7.52;70.56;93200.63;5065747;28;20780;-72
2021/12/07 03:30:30;;;;;;;1.40;1.10;;;;;;;7.08;72.10;93194.50;5065141;28;20453;-72
2021/12/07 03:32:56;;;;;;;2.40;1.50;;;;;;;7.27;71.17;93200.59;5065781;28;20409;-71
2021/12/07 03:35:21;;;;;;;1.80;1.70;;;;;;;6.98;72.13;93199.34;5066001;28;20205;-71
2021/12/07 03:37:47;;;;;;;1.70;1.43;;;;;;;7.20;71.28;93195.41;5065436;28;20159;-71
2021/12/07 03:40:13;;;;;;;1.50;1.40;;;;;;;6.88;72.83;93189.38;5065517;28;20171;-72
2021/12/07 03:42:39;;;;;;;4.20;1.37;;;;;;;6.99;71.80;93191.34;5065088;28;20412;-72
2021/12/07 03:45:07;;;;;;;2.90;1.10;;;;;;;6.53;72.94;93199.34;5065027;28;20185;-71
2021/12/07 03:47:32;;;;;;;2.30;2.10;;;;;;;7.00;71.71;93192.13;5064989;28;20508;-72
2021/12/07 03:49:58;;;;;;;2.43;2.27;;;;;;;7.33;71.01;93188.56;5065095;28;20461;-71
2021/12/07 03:52:23;;;;;;;2.43;2.20;;;;;;;6.86;71.11;93188.81;5065183;28;20212;-72
2021/12/07 03:54:49;;;;;;;2.63;2.43;;;;;;;6.80;71.19;93190.44;5065131;28;20175;-72
2021/12/07 03:57:15;;;;;;;2.83;2.57;;;;;;;6.55;72.16;93179.94;5065272;28;20182;-72
2021/12/07 03:59:40;;;;;;;1.73;1.63;;;;;;;6.60;71.48;93187.09;5065037;28;20502;-73
2021/12/07 04:02:07;;;;;;;1.53;1.37;;;;;;;6.15;72.22;93192.25;5065059;28;20171;-72
2021/12/07 04:04:34;;;;;;;3.00;2.47;;;;;;;6.82;71.00;93196.22;5064955;28;20206;-72
2021/12/07 04:07:00;;;;;;;1.93;1.60;;;;;;;6.47;71.25;93194.94;5064879;28;20465;-72
2021/12/07 04:09:25;;;;;;;2.00;1.83;;;;;;;7.02;70.06;93190.13;5063433;28;20456;-73
2021/12/07 04:11:51;;;;;;;1.80;1.70;;;;;;;6.62;71.33;93185.91;5064658;28;20283;-72
2021/12/07 04:14:16;;;;;;;1.60;1.50;;;;;;;6.72;70.68;93190.66;5064764;28;20229;-72
2021/12/07 04:16:42;;;;;;;1.03;1.00;;;;;;;6.28;72.26;93202.63;5065389;28;20183;-71
2021/12/07 04:19:07;;;;;;;1.07;1.07;;;;;;;6.58;71.50;93195.13;5067871;28;20245;-71
2021/12/07 04:21:33;;;;;;;1.40;1.30;;;;;;;6.81;69.85;93197.25;5068630;28;20246;-71
2021/12/07 04:23:58;;;;;;;0.90;0.90;;;;;;;6.56;70.73;93198.94;5068370;28;20178;-72
2021/12/07 04:26:25;;;;;;;1.47;1.37;;;;;;;6.68;70.52;93189.50;5067224;28;20173;-72
2021/12/07 04:28:51;;;;;;;1.20;1.10;;;;;;;7.20;68.96;93198.03;5068591;28;20167;-73
2021/12/07 04:31:17;;;;;;;1.30;1.20;;;;;;;6.26;71.18;93202.03;5066994;28;20416;-73
2021/12/07 04:33:43;;;;;;;1.30;1.20;;;;;;;6.31;70.98;93204.00;5067197;28;20189;-73
2021/12/07 04:36:10;;;;;;;0.67;0.67;;;;;;;5.89;71.38;93195.66;5066718;28;21019;-72
2021/12/07 04:38:37;;;;;;;1.30;1.20;;;;;;;6.10;71.69;93197.25;5068574;28;20163;-71
2021/12/07 04:41:03;;;;;;;0.70;0.70;;;;;;;5.95;71.17;93190.47;5066860;28;20440;-72
2021/12/07 04:43:28;;;;;;;0.93;0.93;;;;;;;5.76;72.83;93199.84;5068129;28;20436;-72
2021/12/07 04:46:20;;;;;;;1.07;1.07;;;;;;;6.31;71.10;93189.22;5067598;28;20166;-72
2021/12/07 04:59:36;;;;;;;1.37;1.27;;;;;;;6.03;71.35;93197.25;5068271;28;20424;-71
2021/12/07 05:02:02;;;;;;;1.50;1.40;;;;;;;6.04;71.48;93189.28;5068231;28;21033;-71
2021/12/07 05:04:31;;;;;;;0.90;0.90;;;;;;;5.64;71.71;93193.69;5067775;28;20421;-71
2021/12/07 05:07:06;;;;;;;1.53;1.43;;;;;;;6.05;71.58;93196.06;5067808;28;20472;-71
2021/12/07 05:09:52;;;;;;;1.40;1.30;;;;;;;5.74;72.18;93198.47;5067585;28;20464;-71
2021/12/07 05:12:42;;;;;;;1.30;1.20;;;;;;;5.83;71.72;93202.44;5067563;28;20436;-71
2021/12/07 05:15:26;;;;;;;1.40;1.30;;;;;;;5.96;70.49;93197.28;5068608;28;20417;-71
2021/12/07 05:39:13;;;;;;;1.90;1.80;;;;;;;5.66;71.36;93187.28;5067535;28;20934;-71
2021/12/07 05:41:38;;;;;;;2.30;1.93;;;;;;;5.74;70.57;93193.28;5067114;28;20405;-71
2021/12/07 05:44:04;;;;;;;1.97;1.87;;;;;;;5.53;71.25;93191.69;5066986;28;20174;-72
2021/12/07 05:46:29;;;;;;;1.80;1.70;;;;;;;4.89;74.04;93192.00;5067196;28;20166;-71
2021/12/07 05:48:55;;;;;;;1.40;1.30;;;;;;;5.00;73.50;93189.81;5066467;28;20224;-71
2021/12/07 05:51:20;;;;;;;3.27;1.90;;;;;;;5.54;71.93;93188.91;5066736;28;20162;-72
2021/12/07 05:53:46;;;;;;;2.40;2.30;;;;;;;5.20;73.84;93185.47;5066829;28;20179;-71
2021/12/07 05:56:11;;;;;;;2.27;2.17;;;;;;;5.32;72.42;93190.88;5066433;28;20178;-72
2021/12/07 05:58:36;;;;;;;2.13;1.93;;;;;;;5.32;72.83;93188.28;5066547;28;20288;-71
2021/12/07 06:01:03;;;;;;;1.40;1.30;;;;;;;5.37;72.06;93185.88;5066568;28;20297;-72
2021/12/07 06:03:29;;;;;;;1.77;1.67;;;;;;;5.62;70.95;93185.31;5066469;28;20170;-72
2021/12/07 06:05:55;;;;;;;1.77;1.67;;;;;;;5.87;70.52;93181.06;5066276;28;20473;-72
2021/12/07 06:08:22;;;;;;;2.20;1.60;;;;;;;5.02;72.56;93180.84;5066364;28;20397;-72
2021/12/07 06:10:48;;;;;;;1.90;1.80;;;;;;;5.83;70.36;93189.47;5066264;28;20472;-72
2021/12/07 06:13:14;;;;;;;2.63;2.43;;;;;;;5.95;70.42;93189.66;5066354;28;20437;-72
2021/12/07 06:15:44;;;;;;;6.23;2.60;;;;;;;5.95;70.62;93192.25;5066196;28;20429;-73
2021/12/07 06:18:09;;;;;;;3.03;2.83;;;;;;;6.04;70.08;93194.47;5066226;28;20480;-71
2021/12/07 06:20:35;;;;;;;3.30;3.00;;;;;;;5.86;70.03;93196.84;5066447;28;20409;-72
2021/12/07 06:23:00;;;;;;;3.67;3.37;;;;;;;5.71;70.16;93199.66;5066309;28;20401;-72
2021/12/07 06:25:28;;;;;;;4.23;3.93;;;;;;;5.33;71.71;93196.84;5065826;28;20174;-72
2021/12/07 06:27:53;;;;;;;5.30;4.10;;;;;;;5.35;71.91;93198.25;5065761;28;20170;-71
2021/12/07 06:30:19;;;;;;;4.53;4.13;;;;;;;4.93;73.34;93191.59;5066568;28;20457;-72
2021/12/07 06:32:44;;;;;;;7.53;4.50;;;;;;;5.43;72.17;93182.50;5065609;28;20258;-72
2021/12/07 06:35:10;;;;;;;3.60;3.07;;;;;;;5.05;72.49;93185.66;5065394;28;20170;-71
2021/12/07 06:37:36;;;;;;;3.57;2.87;;;;;;;5.21;73.13;93186.25;5065445;28;20189;-71
2021/12/07 06:40:03;;;;;;;3.70;3.40;;;;;;;5.34;72.53;93188.88;5065146;28;20262;-71
2021/12/07 06:42:29;;;;;;;3.13;2.93;;;;;;;5.05;72.85;93185.66;5064976;28;20397;-71
2021/12/07 06:44:54;;;;;;;3.00;2.27;;;;;;;4.93;73.48;93186.41;5065178;28;20424;-72
2021/12/07 06:47:20;;;;;;;3.80;3.00;;;;;;;5.11;73.49;93191.03;5065190;28;20158;-72
2021/12/07 06:49:45;;;;;;;4.83;4.07;;;;;;;5.04;73.57;93196.19;5064788;28;20229;-72
2021/12/07 06:52:11;;;;;;;6.47;2.83;;;;;;;4.80;74.42;93192.34;5064880;28;20166;-71
2021/12/07 06:54:37;;;;;;;4.33;3.93;;;;;;;5.04;73.23;93189.22;5065185;28;20174;-71
2021/12/07 06:57:03;;;;;;;4.23;3.50;;;;;;;5.28;72.77;93200.84;5065054;28;20174;-72
2021/12/07 06:59:29;;;;;;;6.03;4.93;;;;;;;5.36;72.38;93191.28;5065038;28;20166;-72
2021/12/07 07:01:54;;;;;;;6.77;3.83;;;;;;;5.52;71.30;93198.69;5065143;28;20405;-71
2021/12/07 07:04:20;;;;;;;5.83;3.70;;;;;;;5.38;71.62;93197.84;5065375;28;20179;-71
2021/12/07 07:06:46;;;;;;;2.93;2.73;;;;;;;4.37;74.61;93187.44;5064815;28;20169;-73
2021/12/07 07:09:12;;;;;;;2.27;2.07;;;;;;;4.95;72.70;93198.19;5064748;28;20221;-71
2021/12/07 07:11:38;;;;;;;3.03;2.70;;;;;;;4.96;73.31;93196.41;5064574;28;20209;-71
2021/12/07 07:14:04;;;;;;;4.17;3.07;;;;;;;4.71;73.24;93190.94;5064905;28;20424;-72
2021/12/07 07:16:31;;;;;;;5.83;3.77;;;;;;;4.95;73.19;93190.41;5064530;28;20405;-72
2021/12/07 07:18:57;;;;;;;1.83;1.73;;;;;;;4.75;72.88;93185.16;5063753;28;20777;-71
2021/12/07 07:21:24;;;;;;;2.30;2.20;;;;;;;4.81;73.35;93192.16;5063785;28;20416;-72
2021/12/07 07:23:50;;;;;;;3.70;3.30;;;;;;;5.15;73.03;93195.63;5064434;28;20448;-71
2021/12/07 07:26:16;;;;;;;4.33;3.97;;;;;;;5.46;71.71;93197.69;5064561;28;20404;-72
2021/12/07 07:28:42;;;;;;;3.67;3.37;;;;;;;5.06;72.31;93199.41;5064428;28;20478;-71
2021/12/07 07:31:09;;;;;;;4.80;3.53;;;;;;;4.75;73.80;93198.13;5064772;28;20173;-71
2021/12/07 07:33:35;;;;;;;3.70;3.37;;;;;;;4.27;75.25;93203.31;5064695;28;20500;-72
2021/12/07 07:36:00;;;;;;;3.73;3.43;;;;;;;4.63;74.44;93195.31;5064696;28;20401;-71
2021/12/07 07:38:26;;;;;;;4.73;4.00;;;;;;;4.62;74.46;93196.28;5064676;28;20401;-71
2021/12/07 07:40:52;;;;;;;3.43;3.13;;;;;;;4.15;75.93;93194.47;5064672;28;20163;-71
2021/12/07 07:43:18;;;;;;;3.60;3.40;;;;;;;4.79;74.23;93196.75;5064284;28;20163;-71
2021/12/07 07:45:46;;;;;;;4.83;4.33;;;;;;;4.85;73.63;93195.94;5064866;28;20915;-71
2021/12/07 07:48:12;;;;;;;5.63;3.97;;;;;;;4.28;75.52;93197.13;5064385;28;20435;-71
2021/12/07 07:50:37;;;;;;;4.23;3.83;;;;;;;4.73;74.76;93200.13;5064354;28;20551;-71
2021/12/07 07:53:03;;;;;;;3.60;3.30;;;;;;;5.05;72.75;93196.00;5067385;28;20174;-72
2021/12/07 07:55:29;;;;;;;3.47;2.40;;;;;;;5.04;72.45;93189.22;5068642;28;20478;-72
2021/12/07 07:57:55;;;;;;;5.73;5.20;;;;;;;4.84;73.66;93184.00;5068255;28;20785;-71
2021/12/07 08:00:21;;;;;;;4.83;4.30;;;;;;;4.03;75.38;93186.44;5068325;28;20175;-72
2021/12/07 08:02:48;;;;;;;4.67;3.93;;;;;;;4.46;74.66;93187.06;5068040;28;20265;-71
2021/12/07 08:05:15;;;;;;;5.30;3.40;;;;;;;4.29;75.00;93196.16;5068182;28;20413;-71
2021/12/07 08:07:41;;;;;;;4.83;3.17;;;;;;;4.14;75.42;93192.91;5066853;28;20439;-72
2021/12/07 08:10:08;;;;;;;4.77;4.43;;;;;;;4.67;74.28;93193.13;5068340;28;20464;-71
2021/12/07 08:12:34;;;;;;;4.07;3.67;;;;;;;4.45;74.58;93198.41;5068384;28;20181;-71
2021/12/07 08:15:01;;;;;;;3.37;3.17;;;;;;;4.13;76.25;93212.78;5066728;28;20554;-72
2021/12/07 08:17:26;;;;;;;6.90;3.73;;;;;;;4.02;76.64;93198.59;5068368;28;20883;-71
2021/12/07 08:19:52;;;;;;;2.50;2.30;;;;;;;3.81;77.27;93206.41;5068284;28;20488;-71
2021/12/07 08:22:18;;;;;;;4.60;3.70;;;;;;;4.36;75.48;93206.53;5068217;28;20182;-71
2021/12/07 08:24:44;;;;;;;3.83;3.53;;;;;;;4.30;75.80;93214.06;5068028;28;20175;-71
2021/12/07 08:27:10;;;;;;;10.90;3.30;;;;;;;4.04;76.34;93213.91;5067773;28;20512;-71
2021/12/07 08:29:35;;;;;;;5.03;3.13;;;;;;;3.72;76.99;93210.94;5067851;28;20524;-71
2021/12/07 08:32:01;;;;;;;3.30;3.00;;;;;;;3.85;76.70;93207.63;5067756;28;20408;-72
2021/12/07 08:34:26;;;;;;;2.60;2.30;;;;;;;4.25;75.27;93215.63;5067881;28;20229;-72
2021/12/07 08:36:52;;;;;;;7.53;5.90;;;;;;;4.72;74.64;93210.66;5067880;28;20494;-69
2021/12/07 08:39:17;;;;;;;10.13;6.23;;;;;;;4.64;75.02;93214.22;5066590;28;20171;-71
2021/12/07 08:41:43;;;;;;;7.90;5.77;;;;;;;4.99;73.28;93221.91;5067805;28;20209;-71
2021/12/07 08:44:08;;;;;;;1.97;1.87;;;;;;;4.22;75.32;93216.03;5067926;28;20562;-71
2021/12/07 08:46:38;;;;;;;6.90;5.80;;;;;;;4.40;74.97;93218.09;5066477;28;20680;-71
2021/12/07 08:49:03;;;;;;;5.50;4.93;;;;;;;4.89;73.69;93227.47;5067580;28;20195;-71
2021/12/07 08:51:29;;;;;;;7.67;6.27;;;;;;;4.83;73.78;93228.25;5067815;28;20409;-70
2021/12/07 08:54:01;;;;;;;5.70;5.10;;;;;;;4.85;73.63;93227.03;5067367;28;20185;-70
2021/12/07 09:01:55;;;;;;;4.00;3.70;;;;;;;4.44;74.06;93233.06;5067383;28;20784;-72
2021/12/07 09:04:21;;;;;;;4.70;4.20;;;;;;;3.73;76.31;93243.56;5064770;28;20425;-70
2021/12/07 09:06:49;;;;;;;2.90;2.60;;;;;;;3.70;76.78;93238.78;5067186;28;20166;-71
2021/12/07 09:09:15;;;;;;;2.70;1.93;;;;;;;3.76;76.47;93237.22;5067208;28;20606;-70
2021/12/07 09:11:41;;;;;;;3.47;3.17;;;;;;;4.01;76.51;93240.97;5066937;28;20504;-69
2021/12/07 09:14:10;;;;;;;3.63;3.33;;;;;;;4.23;75.43;93238.31;5067323;28;20436;-69
2021/12/07 09:16:36;;;;;;;3.90;2.40;;;;;;;4.09;75.62;93235.66;5067223;28;20404;-70
2021/12/07 09:19:04;;;;;;;4.20;3.83;;;;;;;4.46;74.55;93230.31;5066903;28;20487;-72
2021/12/07 09:21:30;;;;;;;4.57;3.73;;;;;;;4.12;76.31;93234.50;5067031;28;20425;-71
2021/12/07 09:23:56;;;;;;;5.47;4.50;;;;;;;4.50;74.95;93234.88;5066818;28;20427;-72
2021/12/07 09:26:21;;;;;;;4.20;3.80;;;;;;;4.18;75.35;93225.16;5065527;28;20952;-71
2021/12/07 09:28:47;;;;;;;5.30;4.83;;;;;;;4.57;74.70;93228.94;5066817;28;20179;-72
2021/12/07 09:31:13;;;;;;;2.67;2.47;;;;;;;4.35;74.95;93230.84;5066892;28;20696;-72
2021/12/07 09:33:41;;;;;;;4.50;4.10;;;;;;;4.52;73.99;93220.97;5066858;28;20167;-72
2021/12/07 09:36:09;;;;;;;3.50;2.47;;;;;;;4.14;74.75;93222.16;5066655;28;20415;-72
2021/12/07 09:38:36;;;;;;;5.07;4.13;;;;;;;4.52;74.44;93216.56;5066702;28;20460;-72
2021/12/07 09:41:03;;;;;;;2.97;2.77;;;;;;;4.79;73.53;93220.06;5066546;28;20401;-72
2021/12/07 09:43:29;;;;;;;2.17;1.97;;;;;;;4.49;73.55;93214.34;5065361;28;20492;-72
2021/12/07 09:45:55;;;;;;;3.60;3.27;;;;;;;4.93;72.83;93218.28;5066400;28;20408;-70
2021/12/07 09:48:20;;;;;;;3.00;2.80;;;;;;;4.40;74.44;93213.75;5066669;28;20175;-71
2021/12/07 09:50:50;;;;;;;4.10;3.67;;;;;;;4.78;73.42;93204.69;5066713;28;20704;-70
2021/12/07 09:53:17;;;;;;;4.53;3.37;;;;;;;4.97;72.71;93203.97;5066489;28;20652;-71
2021/12/07 09:55:44;;;;;;;2.80;2.33;;;;;;;4.61;73.29;93204.25;5066363;28;20793;-72
2021/12/07 09:58:13;;;;;;;6.03;3.67;;;;;;;4.21;75.17;93211.81;5066356;28;20753;-70
2021/12/07 10:00:39;;;;;;;4.77;2.87;;;;;;;4.71;72.97;93204.69;5065108;28;20417;-70
2021/12/07 10:03:05;;;;;;;2.60;2.40;;;;;;;4.69;73.26;93198.91;5066289;28;20428;-71
2021/12/07 10:05:34;;;;;;;3.37;3.00;;;;;;;5.08;71.71;93205.19;5066524;28;20413;-71
2021/12/07 10:08:01;;;;;;;4.50;3.23;;;;;;;4.95;71.62;93215.50;5066356;28;20409;-71
2021/12/07 10:10:30;;;;;;;3.60;3.30;;;;;;;5.03;72.15;93210.19;5066559;28;20461;-72
2021/12/07 10:12:57;;;;;;;3.10;2.90;;;;;;;5.17;71.21;93208.41;5064783;28;20413;-71
2021/12/07 10:15:23;;;;;;;2.20;2.00;;;;;;;4.46;73.21;93209.59;5066396;28;20420;-71
2021/12/07 10:18:04;;;;;;;4.53;4.00;;;;;;;4.85;72.80;93208.91;5065990;28;20405;-71
2021/12/07 10:20:48;;;;;;;5.43;4.40;;;;;;;5.28;71.13;93206.03;5066585;28;20417;-73
2021/12/07 10:23:13;;;;;;;4.20;3.90;;;;;;;4.24;73.43;93194.13;5065958;28;20401;-70
2021/12/07 10:25:40;;;;;;;3.40;3.10;;;;;;;4.16;74.25;93188.31;5066057;28;20429;-70
2021/12/07 10:28:23;;;;;;;3.80;3.23;;;;;;;4.79;72.52;93191.56;5064299;28;20174;-71
2021/12/07 10:30:49;;;;;;;2.40;2.20;;;;;;;4.28;73.94;93186.78;5064507;28;20956;-70
2021/12/07 10:33:26;;;;;;;2.30;2.20;;;;;;;3.98;74.42;93192.19;5066381;28;20415;-72
2021/12/07 10:36:06;;;;;;;4.03;3.07;;;;;;;4.72;72.81;93195.13;5066100;28;20463;-71
2021/12/07 10:38:31;;;;;;;3.43;3.13;;;;;;;4.08;74.83;93197.03;5065989;28;20412;-71
2021/12/07 10:41:01;;;;;;;4.97;3.20;;;;;;;4.99;71.99;93198.56;5066912;28;20923;-71
2021/12/07 10:43:40;;;;;;;1.93;1.60;;;;;;;4.18;73.81;93194.09;5065873;28;20213;-71
2021/12/07 10:46:33;;;;;;;4.77;2.47;;;;;;;4.61;73.00;93193.88;5065642;28;20478;-72
2021/12/07 10:49:16;;;;;;;4.03;3.63;;;;;;;5.07;71.09;93193.22;5065381;28;20420;-71
2021/12/07 10:52:14;;;;;;;4.07;3.77;;;;;;;5.45;70.31;93195.28;5064652;28;20505;-72
2021/12/07 10:54:42;;;;;;;2.40;2.30;;;;;;;4.75;71.42;93195.53;5065403;28;20417;-72
2021/12/07 10:57:13;;;;;;;3.37;3.13;;;;;;;4.85;71.64;93187.38;5065082;28;20409;-71
2021/12/07 10:59:39;;;;;;;4.03;3.73;;;;;;;4.58;72.10;93189.91;5065598;28;20420;-71
2021/12/07 11:02:15;;;;;;;8.03;4.73;;;;;;;4.41;73.97;93184.25;5065238;28;20428;-70
2021/12/07 11:04:41;;;;;;;4.97;4.03;;;;;;;4.69;71.89;93175.59;5065388;28;20424;-71
2021/12/07 11:07:29;;;;;;;5.33;4.10;;;;;;;4.65;72.37;93169.22;5065036;28;20469;-71
2021/12/07 11:10:20;;;;;;;4.77;3.50;;;;;;;4.58;72.43;93170.97;5063607;28;20461;-71
2021/12/07 11:15:27;;;;;;;4.20;3.50;;;;;;;4.75;71.35;93159.25;5065166;28;20416;-70
2021/12/07 11:18:05;;;;;;;5.10;4.40;;;;;;;4.93;71.53;93150.13;5063192;28;20474;-71
2021/12/07 11:20:32;;;;;;;5.73;5.23;;;;;;;5.22;70.35;93160.16;5065367;28;20413;-71
2021/12/07 11:23:03;;;;;;;6.37;5.13;;;;;;;5.24;70.75;93167.72;5065226;28;20409;-72
2021/12/07 11:25:54;;;;;;;4.83;4.33;;;;;;;4.36;72.72;93165.88;5065260;28;20413;-71
2021/12/07 11:31:37;;;;;;;3.97;3.67;;;;;;;4.61;71.53;93180.94;5064890;28;20449;-70
2021/12/07 11:34:15;;;;;;;6.80;4.60;;;;;;;4.73;71.55;93173.41;5064674;28;20432;-72
2021/12/07 11:36:44;;;;;;;3.93;3.57;;;;;;;4.23;72.70;93165.84;5064546;28;20472;-71
2021/12/07 11:39:27;;;;;;;3.93;3.63;;;;;;;4.69;71.34;93167.81;5063373;28;20425;-71
2021/12/07 11:41:58;;;;;;;2.70;2.20;;;;;;;4.54;70.89;93159.41;5064693;28;20560;-71
2021/12/07 11:44:24;;;;;;;3.40;3.20;;;;;;;4.73;71.27;93155.28;5065114;28;20492;-71
2021/12/07 11:46:52;;;;;;;3.40;3.10;;;;;;;5.39;68.67;93159.75;5063352;28;20421;-71
2021/12/07 11:49:21;;;;;;;4.00;3.80;;;;;;;5.75;67.14;93172.31;5064288;28;20510;-72
2021/12/07 11:51:49;;;;;;;4.50;3.50;;;;;;;5.59;67.61;93180.50;5063824;28;20726;-71
2021/12/07 11:54:28;;;;;;;5.53;4.53;;;;;;;5.59;67.64;93178.69;5064770;28;20432;-71
2021/12/07 11:56:55;;;;;;;5.03;4.50;;;;;;;5.24;68.76;93168.53;5064926;28;20381;-71
2021/12/07 11:59:20;;;;;;;4.13;3.80;;;;;;;5.23;68.56;93153.16;5064661;28;20413;-71
2021/12/07 12:01:48;;;;;;;2.93;2.50;;;;;;;5.30;67.63;93155.75;5064670;28;20477;-71
2021/12/07 12:04:16;;;;;;;3.43;3.23;;;;;;;5.36;67.58;93155.75;5064415;28;20178;-71
2021/12/07 12:06:43;;;;;;;4.00;3.70;;;;;;;5.12;67.86;93159.72;5064588;28;20420;-72
2021/12/07 12:09:09;;;;;;;3.07;2.87;;;;;;;5.11;68.21;93158.13;5064265;28;20845;-72
2021/12/07 12:12:19;;;;;;;3.07;2.87;;;;;;;5.22;67.47;93165.31;5064560;28;20946;-72
2021/12/07 12:15:00;;;;;;;2.80;2.60;;;;;;;5.21;67.40;93162.94;5064768;28;20412;-71
2021/12/07 12:17:47;;;;;;;3.20;2.90;;;;;;;5.27;67.43;93157.75;5065311;28;20433;-72
2021/12/07 12:20:29;;;;;;;4.40;3.40;;;;;;;5.00;68.43;93161.31;5065130;28;20425;-73
2021/12/07 12:23:10;;;;;;;3.47;3.17;;;;;;;5.07;68.10;93162.13;5063371;28;20412;-74
2021/12/07 12:25:36;;;;;;;4.93;3.50;;;;;;;5.19;68.39;93167.50;5067550;28;20413;-73
2021/12/07 12:28:03;;;;;;;3.00;2.80;;;;;;;5.26;67.66;93153.56;5065222;28;20492;-71
2021/12/07 12:30:35;;;;;;;3.50;3.17;;;;;;;5.14;67.71;93147.38;5053547;28;20582;-69
2021/12/07 12:33:09;;;;;;;3.70;3.40;;;;;;;5.46;66.80;93145.78;5063254;28;20409;-69
2021/12/07 12:35:40;;;;;;;4.10;3.80;;;;;;;5.35;67.36;93150.75;5064688;28;20425;-70
2021/12/07 12:38:23;;;;;;;4.23;3.73;;;;;;;5.34;67.75;93152.56;5062637;28;20439;-70
2021/12/07 12:40:59;;;;;;;5.73;4.50;;;;;;;5.45;67.42;93154.56;5066365;28;20860;-69
2021/12/07 12:43:34;;;;;;;5.20;4.70;;;;;;;5.70;66.94;93156.53;5067588;28;20410;-70
2021/12/07 12:46:03;;;;;;;6.67;3.77;;;;;;;5.28;67.19;93166.34;5067935;28;20404;-70
2021/12/07 12:48:32;;;;;;;4.47;4.10;;;;;;;5.56;67.01;93168.72;5067684;28;20417;-71
2021/12/07 12:50:58;;;;;;;4.03;3.73;;;;;;;5.35;67.58;93172.31;5067736;28;20459;-72
2021/12/07 12:53:34;;;;;;;4.23;3.93;;;;;;;5.29;67.68;93173.09;5067669;28;20405;-72
2021/12/07 12:56:01;;;;;;;4.83;4.40;;;;;;;5.23;68.58;93166.91;5067968;28;20405;-71
2021/12/07 12:58:33;;;;;;;5.77;5.27;;;;;;;4.69;69.67;93167.81;5067644;28;20409;-72
2021/12/07 13:01:11;;;;;;;4.33;4.00;;;;;;;5.12;68.71;93175.28;5067620;28;20819;-72
2021/12/07 13:03:44;;;;;;;5.50;5.00;;;;;;;5.15;67.69;93171.50;5067667;28;20860;-72
2021/12/07 13:06:14;;;;;;;5.60;4.43;;;;;;;4.67;68.98;93175.00;5067462;28;20405;-71
2021/12/07 13:08:57;;;;;;;4.30;4.00;;;;;;;5.08;68.32;93174.06;5067507;28;20433;-71
2021/12/07 13:11:50;;;;;;;1.47;1.10;;;;;;;5.00;67.85;93188.03;5067487;28;20457;-72
2021/12/07 13:14:22;;;;;;;4.60;4.20;;;;;;;5.18;67.88;93184.88;5067500;28;20421;-71
2021/12/07 13:16:53;;;;;;;4.30;3.43;;;;;;;4.56;68.42;93181.53;5067374;28;20420;-72
2021/12/07 13:19:20;;;;;;;4.70;4.37;;;;;;;5.23;67.12;93182.47;5067029;28;20460;-72
2021/12/07 13:21:47;;;;;;;3.20;3.00;;;;;;;5.06;67.61;93178.66;5065822;28;20409;-72
2021/12/07 13:24:19;;;;;;;3.53;3.33;;;;;;;4.95;67.48;93185.25;5067253;28;20424;-72
2021/12/07 13:26:53;;;;;;;5.10;2.90;;;;;;;4.67;67.88;93182.75;5067028;28;20405;-72
2021/12/07 13:29:24;;;;;;;2.37;2.17;;;;;;;4.48;67.74;93179.91;5066977;28;20464;-72
2021/12/07 13:31:54;;;;;;;3.67;3.47;;;;;;;4.93;67.52;93191.59;5065882;28;20420;-72
2021/12/07 13:35:10;;;;;;;2.77;2.57;;;;;;;4.84;66.98;93196.97;5067137;28;20416;-73